sensor_id;sensor_type;location;lat;lon;timestamp;pressure;altitude;pressure_sealevel;temperature;humidity
4858;BME280;58975;51.978;8.472;2022-07-21T00:01:39;100489.06;;;18.18;100.00
4858;BME280;58975;51.978;8.472;2022-07-21T00:06:35;100442.56;;;18.08;100.00
4858;BME280;58975;51.978;8.472;2022-07-21T00:11:32;100442.44;;;18.01;100.00
4858;BME280;58975;51.978;8.472;2022-07-21T00:16:28;100454.56;;;18.05;100.00
4858;BME280;58975;51.978;8.472;2022-07-21T00:21:26;100464.97;;;18.24;100.00
4858;BME280;58975;51.978;8.472;2022-07-21T00:26:22;100463.41;;;18.46;100.00
4858;BME280;58975;51.978;8.472;2022-07-21T00:31:19;100470.97;;;18.51;100.00
4858;BME280;58975;51.978;8.472;2022-07-21T00:36:15;100509.94;;;18.56;100.00
4858;BME280;58975;51.978;8.472;2022-07-21T00:41:12;100502.34;;;18.52;100.00
4858;BME280;58975;51.978;8.472;2022-07-21T00:46:09;100488.03;;;18.35;100.00
4858;BME280;58975;51.978;8.472;2022-07-21T00:51:05;100517.34;;;18.46;100.00
4858;BME280;58975;51.978;8.472;2022-07-21T00:56:02;100549.38;;;18.57;100.00
4858;BME280;58975;51.978;8.472;2022-07-21T01:00:58;100559.16;;;18.58;100.00
4858;BME280;58975;51.978;8.472;2022-07-21T01:05:57;100561.69;;;18.60;100.00
4858;BME280;58975;51.978;8.472;2022-07-21T01:10:54;100547.03;;;18.54;100.00
4858;BME280;58975;51.978;8.472;2022-07-21T01:15:51;100515.34;;;18.32;100.00
4858;BME280;58975;51.978;8.472;2022-07-21T01:20:54;100526.31;;;18.30;100.00
4858;BME280;58975;51.978;8.472;2022-07-21T01:25:51;100549.22;;;18.42;100.00
4858;BME280;58975;51.978;8.472;2022-07-21T01:30:47;100541.44;;;18.39;100.00
4858;BME280;58975;51.978;8.472;2022-07-21T01:35:44;100500.34;;;18.29;100.00
4858;BME280;58975;51.978;8.472;2022-07-21T01:40:41;100505.06;;;18.27;100.00
4858;BME280;58975;51.978;8.472;2022-07-21T01:46:16;100489.56;;;18.29;100.00
4858;BME280;58975;51.978;8.472;2022-07-21T01:51:12;100503.88;;;18.30;100.00
4858;BME280;58975;51.978;8.472;2022-07-21T01:56:09;100491.75;;;18.34;100.00
4858;BME280;58975;51.978;8.472;2022-07-21T02:01:05;100478.09;;;18.35;100.00
4858;BME280;58975;51.978;8.472;2022-07-21T02:06:04;100473.84;;;18.49;100.00
4858;BME280;58975;51.978;8.472;2022-07-21T02:11:01;100487.69;;;18.54;100.00
4858;BME280;58975;51.978;8.472;2022-07-21T02:15:57;100472.00;;;18.58;100.00
4858;BME280;58975;51.978;8.472;2022-07-21T02:20:54;100467.78;;;18.55;100.00
4858;BME280;58975;51.978;8.472;2022-07-21T02:25:51;100473.53;;;18.52;100.00
4858;BME280;58975;51.978;8.472;2022-07-21T02:30:53;100483.81;;;18.57;100.00
4858;BME280;58975;51.978;8.472;2022-07-21T02:35:50;100506.06;;;18.42;100.00
4858;BME280;58975;51.978;8.472;2022-07-21T02:40:46;100513.13;;;18.35;100.00
4858;BME280;58975;51.978;8.472;2022-07-21T02:45:48;100521.91;;;18.29;100.00
4858;BME280;58975;51.978;8.472;2022-07-21T02:50:45;100515.69;;;18.13;100.00
4858;BME280;58975;51.978;8.472;2022-07-21T02:55:42;100529.66;;;18.08;100.00
4858;BME280;58975;51.978;8.472;2022-07-21T03:00:40;100548.19;;;18.19;100.00
4858;BME280;58975;51.978;8.472;2022-07-21T03:05:38;100546.19;;;18.29;100.00
4858;BME280;58975;51.978;8.472;2022-07-21T03:10:35;100555.13;;;18.14;100.00
4858;BME280;58975;51.978;8.472;2022-07-21T03:15:32;100540.41;;;17.60;100.00
4858;BME280;58975;51.978;8.472;2022-07-21T03:20:31;100539.06;;;17.64;100.00
4858;BME280;58975;51.978;8.472;2022-07-21T03:25:28;100532.56;;;17.48;100.00
4858;BME280;58975;51.978;8.472;2022-07-21T03:30:24;100540.66;;;17.48;100.00
4858;BME280;58975;51.978;8.472;2022-07-21T03:35:22;100547.41;;;17.44;100.00
4858;BME280;58975;51.978;8.472;2022-07-21T03:40:20;100540.34;;;17.43;100.00
4858;BME280;58975;51.978;8.472;2022-07-21T03:45:19;100552.09;;;17.42;100.00
4858;BME280;58975;51.978;8.472;2022-07-21T03:50:16;100560.19;;;17.42;100.00
4858;BME280;58975;51.978;8.472;2022-07-21T03:55:14;100557.97;;;17.38;100.00
4858;BME280;58975;51.978;8.472;2022-07-21T04:00:19;100562.19;;;17.40;100.00
4858;BME280;58975;51.978;8.472;2022-07-21T04:05:17;100565.47;;;17.18;100.00
4858;BME280;58975;51.978;8.472;2022-07-21T04:10:16;100561.50;;;16.96;100.00
4858;BME280;58975;51.978;8.472;2022-07-21T04:15:13;100555.22;;;16.88;100.00
4858;BME280;58975;51.978;8.472;2022-07-21T04:20:11;100565.28;;;16.86;100.00
4858;BME280;58975;51.978;8.472;2022-07-21T04:25:08;100561.41;;;16.80;100.00
4858;BME280;58975;51.978;8.472;2022-07-21T04:30:07;100553.53;;;16.87;100.00
4858;BME280;58975;51.978;8.472;2022-07-21T04:35:06;100547.16;;;16.88;100.00
4858;BME280;58975;51.978;8.472;2022-07-21T04:40:05;100544.16;;;16.91;100.00
4858;BME280;58975;51.978;8.472;2022-07-21T04:45:03;100547.22;;;16.96;100.00
4858;BME280;58975;51.978;8.472;2022-07-21T04:50:00;100544.19;;;16.99;100.00
4858;BME280;58975;51.978;8.472;2022-07-21T04:54:56;100556.03;;;17.14;100.00
4858;BME280;58975;51.978;8.472;2022-07-21T04:59:52;100561.81;;;17.27;100.00
4858;BME280;58975;51.978;8.472;2022-07-21T05:04:49;100570.59;;;17.45;100.00
4858;BME280;58975;51.978;8.472;2022-07-21T05:09:46;100578.34;;;17.40;100.00
4858;BME280;58975;51.978;8.472;2022-07-21T05:14:42;100578.06;;;17.52;100.00
4858;BME280;58975;51.978;8.472;2022-07-21T05:19:39;100558.47;;;17.41;100.00
4858;BME280;58975;51.978;8.472;2022-07-21T05:24:35;100556.22;;;17.63;100.00
4858;BME280;58975;51.978;8.472;2022-07-21T05:29:32;100552.75;;;18.03;100.00
4858;BME280;58975;51.978;8.472;2022-07-21T05:34:28;100547.38;;;18.03;100.00
4858;BME280;58975;51.978;8.472;2022-07-21T05:39:25;100518.22;;;18.38;100.00
4858;BME280;58975;51.978;8.472;2022-07-21T05:44:21;100522.53;;;18.72;100.00
4858;BME280;58975;51.978;8.472;2022-07-21T05:49:18;100491.41;;;18.53;100.00
4858;BME280;58975;51.978;8.472;2022-07-21T05:54:14;100474.69;;;18.50;100.00
4858;BME280;58975;51.978;8.472;2022-07-21T05:59:11;100493.56;;;18.74;100.00
4858;BME280;58975;51.978;8.472;2022-07-21T06:04:07;100484.44;;;18.51;100.00
4858;BME280;58975;51.978;8.472;2022-07-21T06:09:04;100492.56;;;18.59;100.00
4858;BME280;58975;51.978;8.472;2022-07-21T06:14:00;100502.19;;;18.45;100.00
4858;BME280;58975;51.978;8.472;2022-07-21T06:18:57;100501.50;;;18.43;100.00
4858;BME280;58975;51.978;8.472;2022-07-21T06:23:53;100505.41;;;18.24;100.00
4858;BME280;58975;51.978;8.472;2022-07-21T06:28:50;100509.09;;;18.15;100.00
4858;BME280;58975;51.978;8.472;2022-07-21T06:33:47;100517.03;;;18.33;100.00
4858;BME280;58975;51.978;8.472;2022-07-21T06:38:43;100518.38;;;18.37;100.00
4858;BME280;58975;51.978;8.472;2022-07-21T06:43:41;100531.34;;;18.50;100.00
4858;BME280;58975;51.978;8.472;2022-07-21T06:48:37;100535.19;;;18.71;100.00
4858;BME280;58975;51.978;8.472;2022-07-21T06:53:33;100519.50;;;18.75;100.00
4858;BME280;58975;51.978;8.472;2022-07-21T06:58:30;100512.66;;;19.03;100.00
4858;BME280;58975;51.978;8.472;2022-07-21T07:03:36;100499.63;;;18.68;100.00
4858;BME280;58975;51.978;8.472;2022-07-21T07:08:32;100521.84;;;18.78;100.00
4858;BME280;58975;51.978;8.472;2022-07-21T07:13:29;100510.94;;;19.10;100.00
4858;BME280;58975;51.978;8.472;2022-07-21T07:18:45;100500.16;;;19.72;100.00
4858;BME280;58975;51.978;8.472;2022-07-21T07:23:42;100481.00;;;19.59;100.00
4858;BME280;58975;51.978;8.472;2022-07-21T07:28:39;100487.88;;;19.00;100.00
4858;BME280;58975;51.978;8.472;2022-07-21T07:33:35;100497.47;;;19.02;100.00
4858;BME280;58975;51.978;8.472;2022-07-21T07:38:31;100496.34;;;18.88;100.00
4858;BME280;58975;51.978;8.472;2022-07-21T07:43:28;100503.94;;;18.93;100.00
4858;BME280;58975;51.978;8.472;2022-07-21T07:48:25;100504.94;;;18.92;100.00
4858;BME280;58975;51.978;8.472;2022-07-21T07:53:21;100499.22;;;18.87;100.00
4858;BME280;58975;51.978;8.472;2022-07-21T07:58:17;100506.66;;;19.24;100.00
4858;BME280;58975;51.978;8.472;2022-07-21T08:03:14;100505.09;;;19.60;100.00
4858;BME280;58975;51.978;8.472;2022-07-21T08:08:10;100497.09;;;20.12;100.00
4858;BME280;58975;51.978;8.472;2022-07-21T08:13:07;100483.13;;;20.46;100.00
4858;BME280;58975;51.978;8.472;2022-07-21T08:18:06;100473.41;;;20.66;100.00
4858;BME280;58975;51.978;8.472;2022-07-21T08:23:03;100470.81;;;20.73;100.00
4858;BME280;58975;51.978;8.472;2022-07-21T08:28:00;100467.91;;;20.89;100.00
4858;BME280;58975;51.978;8.472;2022-07-21T08:32:58;100475.22;;;21.39;100.00
4858;BME280;58975;51.978;8.472;2022-07-21T08:38:01;100478.56;;;21.98;100.00
4858;BME280;58975;51.978;8.472;2022-07-21T08:42:59;100484.34;;;21.74;100.00
4858;BME280;58975;51.978;8.472;2022-07-21T08:47:56;100480.34;;;22.12;100.00
4858;BME280;58975;51.978;8.472;2022-07-21T08:52:53;100492.53;;;21.59;100.00
4858;BME280;58975;51.978;8.472;2022-07-21T08:57:55;100480.25;;;21.42;100.00
4858;BME280;58975;51.978;8.472;2022-07-21T09:08:05;100487.41;;;21.50;100.00
4858;BME280;58975;51.978;8.472;2022-07-21T09:13:05;100484.28;;;21.67;100.00
4858;BME280;58975;51.978;8.472;2022-07-21T09:18:13;100497.56;;;21.84;100.00
4858;BME280;58975;51.978;8.472;2022-07-21T09:23:13;100483.88;;;20.84;100.00
4858;BME280;58975;51.978;8.472;2022-07-21T09:28:17;100474.00;;;20.24;100.00
4858;BME280;58975;51.978;8.472;2022-07-21T09:33:26;100480.16;;;20.85;100.00
4858;BME280;58975;51.978;8.472;2022-07-21T09:38:24;100491.31;;;21.26;100.00
4858;BME280;58975;51.978;8.472;2022-07-21T09:43:34;100488.03;;;21.31;100.00
4858;BME280;58975;51.978;8.472;2022-07-21T09:48:33;100494.31;;;21.02;100.00
4858;BME280;58975;51.978;8.472;2022-07-21T09:54:10;100478.34;;;21.21;100.00
4858;BME280;58975;51.978;8.472;2022-07-21T09:59:08;100481.09;;;21.43;100.00
4858;BME280;58975;51.978;8.472;2022-07-21T10:04:06;100496.00;;;21.53;100.00
4858;BME280;58975;51.978;8.472;2022-07-21T10:09:06;100491.13;;;21.28;100.00
4858;BME280;58975;51.978;8.472;2022-07-21T10:14:10;100489.38;;;21.56;100.00
4858;BME280;58975;51.978;8.472;2022-07-21T10:19:39;100490.03;;;21.79;100.00
4858;BME280;58975;51.978;8.472;2022-07-21T10:24:39;100484.28;;;22.10;100.00
4858;BME280;58975;51.978;8.472;2022-07-21T10:29:54;100497.34;;;22.83;100.00
4858;BME280;58975;51.978;8.472;2022-07-21T10:34:58;100495.00;;;22.46;100.00
4858;BME280;58975;51.978;8.472;2022-07-21T10:39:54;100485.50;;;22.63;100.00
4858;BME280;58975;51.978;8.472;2022-07-21T10:44:51;100503.94;;;23.49;100.00
4858;BME280;58975;51.978;8.472;2022-07-21T10:49:56;100496.50;;;24.04;100.00
4858;BME280;58975;51.978;8.472;2022-07-21T11:05:18;100456.38;;;22.78;100.00
4858;BME280;58975;51.978;8.472;2022-07-21T11:10:16;100456.28;;;22.65;100.00
4858;BME280;58975;51.978;8.472;2022-07-21T11:15:42;100462.88;;;22.77;100.00
4858;BME280;58975;51.978;8.472;2022-07-21T11:20:39;100458.19;;;22.37;100.00
4858;BME280;58975;51.978;8.472;2022-07-21T11:25:36;100452.63;;;21.32;100.00
4858;BME280;58975;51.978;8.472;2022-07-21T11:30:32;100436.47;;;20.59;100.00
4858;BME280;58975;51.978;8.472;2022-07-21T11:35:29;100425.25;;;20.91;100.00
4858;BME280;58975;51.978;8.472;2022-07-21T11:40:28;100417.75;;;21.08;100.00
4858;BME280;58975;51.978;8.472;2022-07-21T11:45:25;100424.84;;;20.94;100.00
4858;BME280;58975;51.978;8.472;2022-07-21T11:50:24;100437.47;;;20.87;100.00
4858;BME280;58975;51.978;8.472;2022-07-21T11:55:22;100435.94;;;20.34;100.00
4858;BME280;58975;51.978;8.472;2022-07-21T12:00:18;100437.03;;;20.40;100.00
4858;BME280;58975;51.978;8.472;2022-07-21T12:05:17;100430.06;;;21.67;100.00
4858;BME280;58975;51.978;8.472;2022-07-21T12:10:22;100440.94;;;22.79;100.00
4858;BME280;58975;51.978;8.472;2022-07-21T12:15:30;100447.19;;;23.20;100.00
4858;BME280;58975;51.978;8.472;2022-07-21T12:20:29;100427.84;;;23.69;100.00
4858;BME280;58975;51.978;8.472;2022-07-21T12:25:35;100445.47;;;23.13;100.00
4858;BME280;58975;51.978;8.472;2022-07-21T12:30:37;100440.59;;;23.01;100.00
4858;BME280;58975;51.978;8.472;2022-07-21T12:35:42;100413.94;;;23.18;100.00
4858;BME280;58975;51.978;8.472;2022-07-21T12:40:44;100445.75;;;21.51;100.00
4858;BME280;58975;51.978;8.472;2022-07-21T12:46:15;100436.84;;;20.85;100.00
4858;BME280;58975;51.978;8.472;2022-07-21T12:56:18;100436.31;;;22.10;100.00
4858;BME280;58975;51.978;8.472;2022-07-21T13:01:16;100440.91;;;22.44;100.00
4858;BME280;58975;51.978;8.472;2022-07-21T13:06:13;100449.97;;;22.24;100.00
4858;BME280;58975;51.978;8.472;2022-07-21T13:11:12;100448.63;;;22.41;100.00
4858;BME280;58975;51.978;8.472;2022-07-21T13:16:09;100454.00;;;22.62;100.00
4858;BME280;58975;51.978;8.472;2022-07-21T13:21:06;100463.06;;;22.76;100.00
4858;BME280;58975;51.978;8.472;2022-07-21T13:26:02;100476.59;;;22.13;100.00
4858;BME280;58975;51.978;8.472;2022-07-21T13:31:01;100474.00;;;21.42;100.00
4858;BME280;58975;51.978;8.472;2022-07-21T13:35:58;100466.47;;;21.08;100.00
4858;BME280;58975;51.978;8.472;2022-07-21T13:40:54;100461.94;;;19.98;100.00
4858;BME280;58975;51.978;8.472;2022-07-21T13:46:10;100469.75;;;19.70;100.00
4858;BME280;58975;51.978;8.472;2022-07-21T13:51:07;100465.84;;;20.33;100.00
4858;BME280;58975;51.978;8.472;2022-07-21T13:56:05;100452.09;;;21.22;100.00
4858;BME280;58975;51.978;8.472;2022-07-21T14:01:02;100442.78;;;21.46;100.00
4858;BME280;58975;51.978;8.472;2022-07-21T14:05:58;100434.31;;;21.77;100.00
4858;BME280;58975;51.978;8.472;2022-07-21T14:10:55;100439.19;;;21.88;100.00
4858;BME280;58975;51.978;8.472;2022-07-21T14:15:51;100450.25;;;21.65;100.00
4858;BME280;58975;51.978;8.472;2022-07-21T14:20:48;100439.13;;;21.17;100.00
4858;BME280;58975;51.978;8.472;2022-07-21T14:25:49;100448.16;;;22.31;100.00
4858;BME280;58975;51.978;8.472;2022-07-21T14:30:46;100455.16;;;21.76;100.00
4858;BME280;58975;51.978;8.472;2022-07-21T14:35:43;100445.94;;;22.47;100.00
4858;BME280;58975;51.978;8.472;2022-07-21T14:40:39;100447.22;;;22.86;100.00
4858;BME280;58975;51.978;8.472;2022-07-21T14:45:36;100456.03;;;22.53;100.00
4858;BME280;58975;51.978;8.472;2022-07-21T14:50:33;100456.22;;;21.96;100.00
4858;BME280;58975;51.978;8.472;2022-07-21T14:55:29;100440.97;;;21.32;100.00
4858;BME280;58975;51.978;8.472;2022-07-21T15:00:26;100436.31;;;21.11;100.00
4858;BME280;58975;51.978;8.472;2022-07-21T15:05:23;100438.66;;;21.14;100.00
4858;BME280;58975;51.978;8.472;2022-07-21T15:10:19;100444.06;;;21.50;100.00
4858;BME280;58975;51.978;8.472;2022-07-21T15:15:16;100451.22;;;21.57;100.00
4858;BME280;58975;51.978;8.472;2022-07-21T15:20:12;100443.63;;;21.67;100.00
4858;BME280;58975;51.978;8.472;2022-07-21T15:25:10;100447.44;;;21.16;100.00
4858;BME280;58975;51.978;8.472;2022-07-21T15:30:10;100437.94;;;20.91;100.00
4858;BME280;58975;51.978;8.472;2022-07-21T15:35:08;100439.53;;;20.26;100.00
4858;BME280;58975;51.978;8.472;2022-07-21T15:40:06;100444.94;;;19.89;100.00
4858;BME280;58975;51.978;8.472;2022-07-21T15:45:04;100433.13;;;19.90;100.00
4858;BME280;58975;51.978;8.472;2022-07-21T15:50:00;100436.34;;;19.86;100.00
4858;BME280;58975;51.978;8.472;2022-07-21T15:54:57;100435.63;;;19.92;100.00
4858;BME280;58975;51.978;8.472;2022-07-21T15:59:58;100440.50;;;19.73;100.00
4858;BME280;58975;51.978;8.472;2022-07-21T16:04:55;100456.81;;;19.34;100.00
4858;BME280;58975;51.978;8.472;2022-07-21T16:09:51;100483.75;;;18.81;100.00
4858;BME280;58975;51.978;8.472;2022-07-21T16:14:48;100509.31;;;18.93;100.00
4858;BME280;58975;51.978;8.472;2022-07-21T16:19:44;100525.03;;;18.89;100.00
4858;BME280;58975;51.978;8.472;2022-07-21T16:24:42;100542.44;;;18.71;100.00
4858;BME280;58975;51.978;8.472;2022-07-21T16:29:38;100572.47;;;18.60;100.00
4858;BME280;58975;51.978;8.472;2022-07-21T16:34:35;100566.22;;;18.43;100.00
4858;BME280;58975;51.978;8.472;2022-07-21T16:39:33;100572.94;;;18.47;100.00
4858;BME280;58975;51.978;8.472;2022-07-21T16:44:30;100568.75;;;18.12;100.00
4858;BME280;58975;51.978;8.472;2022-07-21T16:49:26;100564.38;;;18.03;100.00
4858;BME280;58975;51.978;8.472;2022-07-21T16:54:23;100565.03;;;18.13;100.00
4858;BME280;58975;51.978;8.472;2022-07-21T16:59:19;100568.91;;;18.35;100.00
4858;BME280;58975;51.978;8.472;2022-07-21T17:04:16;100560.81;;;18.43;100.00
4858;BME280;58975;51.978;8.472;2022-07-21T17:09:12;100561.31;;;18.47;100.00
4858;BME280;58975;51.978;8.472;2022-07-21T17:14:09;100550.88;;;18.60;100.00
4858;BME280;58975;51.978;8.472;2022-07-21T17:19:06;100542.13;;;18.58;100.00
4858;BME280;58975;51.978;8.472;2022-07-21T17:24:02;100542.28;;;18.40;100.00
4858;BME280;58975;51.978;8.472;2022-07-21T17:29:05;100541.94;;;18.35;100.00
4858;BME280;58975;51.978;8.472;2022-07-21T17:34:02;100546.19;;;18.37;100.00
4858;BME280;58975;51.978;8.472;2022-07-21T17:38:58;100551.91;;;18.26;100.00
4858;BME280;58975;51.978;8.472;2022-07-21T17:43:55;100560.00;;;18.10;100.00
4858;BME280;58975;51.978;8.472;2022-07-21T17:48:52;100566.84;;;17.72;100.00
4858;BME280;58975;51.978;8.472;2022-07-21T17:53:49;100565.16;;;17.63;100.00
4858;BME280;58975;51.978;8.472;2022-07-21T17:58:46;100566.78;;;17.56;100.00
4858;BME280;58975;51.978;8.472;2022-07-21T18:03:42;100570.19;;;17.58;100.00
4858;BME280;58975;51.978;8.472;2022-07-21T18:08:39;100585.50;;;17.58;100.00
4858;BME280;58975;51.978;8.472;2022-07-21T18:13:36;100581.88;;;17.49;100.00
4858;BME280;58975;51.978;8.472;2022-07-21T18:18:33;100593.19;;;17.52;100.00
4858;BME280;58975;51.978;8.472;2022-07-21T18:23:30;100582.22;;;17.46;100.00
4858;BME280;58975;51.978;8.472;2022-07-21T18:28:27;100578.69;;;17.45;100.00
4858;BME280;58975;51.978;8.472;2022-07-21T18:33:23;100586.78;;;17.54;100.00
4858;BME280;58975;51.978;8.472;2022-07-21T18:38:19;100591.50;;;17.52;100.00
4858;BME280;58975;51.978;8.472;2022-07-21T18:43:16;100593.88;;;17.55;100.00
4858;BME280;58975;51.978;8.472;2022-07-21T18:48:12;100596.91;;;17.52;100.00
4858;BME280;58975;51.978;8.472;2022-07-21T18:53:29;100609.66;;;17.49;100.00
4858;BME280;58975;51.978;8.472;2022-07-21T18:58:25;100615.38;;;17.46;100.00
4858;BME280;58975;51.978;8.472;2022-07-21T19:03:22;100618.91;;;17.47;100.00
4858;BME280;58975;51.978;8.472;2022-07-21T19:08:18;100614.38;;;17.47;100.00
4858;BME280;58975;51.978;8.472;2022-07-21T19:13:15;100615.69;;;17.35;100.00
4858;BME280;58975;51.978;8.472;2022-07-21T19:18:11;100609.97;;;17.38;100.00
4858;BME280;58975;51.978;8.472;2022-07-21T19:23:08;100614.69;;;17.36;100.00
4858;BME280;58975;51.978;8.472;2022-07-21T19:28:04;100617.66;;;17.33;100.00
4858;BME280;58975;51.978;8.472;2022-07-21T19:33:01;100631.97;;;17.34;100.00
4858;BME280;58975;51.978;8.472;2022-07-21T19:37:57;100636.84;;;17.30;100.00
4858;BME280;58975;51.978;8.472;2022-07-21T19:42:55;100644.97;;;17.38;100.00
4858;BME280;58975;51.978;8.472;2022-07-21T19:47:51;100648.97;;;17.34;100.00
4858;BME280;58975;51.978;8.472;2022-07-21T19:52:50;100643.25;;;17.37;100.00
4858;BME280;58975;51.978;8.472;2022-07-21T19:57:46;100645.63;;;17.32;100.00
4858;BME280;58975;51.978;8.472;2022-07-21T20:02:43;100649.31;;;17.31;100.00
4858;BME280;58975;51.978;8.472;2022-07-21T20:07:40;100650.47;;;17.29;100.00
4858;BME280;58975;51.978;8.472;2022-07-21T20:12:37;100646.94;;;17.28;100.00
4858;BME280;58975;51.978;8.472;2022-07-21T20:17:34;100655.63;;;17.22;100.00
4858;BME280;58975;51.978;8.472;2022-07-21T20:22:38;100653.44;;;17.18;100.00
4858;BME280;58975;51.978;8.472;2022-07-21T20:27:34;100662.28;;;17.10;100.00
4858;BME280;58975;51.978;8.472;2022-07-21T20:32:31;100664.97;;;17.10;100.00
4858;BME280;58975;51.978;8.472;2022-07-21T20:37:28;100670.22;;;17.12;100.00
4858;BME280;58975;51.978;8.472;2022-07-21T20:42:25;100661.44;;;17.10;100.00
4858;BME280;58975;51.978;8.472;2022-07-21T20:47:21;100664.97;;;17.10;100.00
4858;BME280;58975;51.978;8.472;2022-07-21T20:52:18;100676.78;;;17.09;100.00
4858;BME280;58975;51.978;8.472;2022-07-21T20:57:15;100677.59;;;17.10;100.00
4858;BME280;58975;51.978;8.472;2022-07-21T21:02:14;100680.47;;;17.08;100.00
4858;BME280;58975;51.978;8.472;2022-07-21T21:07:10;100682.81;;;17.11;100.00
4858;BME280;58975;51.978;8.472;2022-07-21T21:12:07;100685.84;;;17.08;100.00
4858;BME280;58975;51.978;8.472;2022-07-21T21:17:03;100692.38;;;17.06;100.00
4858;BME280;58975;51.978;8.472;2022-07-21T21:22:00;100693.84;;;17.00;100.00
4858;BME280;58975;51.978;8.472;2022-07-21T21:26:56;100695.22;;;17.04;100.00
4858;BME280;58975;51.978;8.472;2022-07-21T21:31:53;100700.94;;;17.01;100.00
4858;BME280;58975;51.978;8.472;2022-07-21T21:36:49;100700.22;;;16.99;100.00
4858;BME280;58975;51.978;8.472;2022-07-21T21:41:45;100708.69;;;17.04;100.00
4858;BME280;58975;51.978;8.472;2022-07-21T21:46:42;100695.91;;;17.06;100.00
4858;BME280;58975;51.978;8.472;2022-07-21T21:51:39;100702.13;;;17.07;100.00
4858;BME280;58975;51.978;8.472;2022-07-21T21:56:35;100701.47;;;17.05;100.00
4858;BME280;58975;51.978;8.472;2022-07-21T22:01:32;100696.59;;;17.08;100.00
4858;BME280;58975;51.978;8.472;2022-07-21T22:06:29;100693.06;;;17.08;100.00
4858;BME280;58975;51.978;8.472;2022-07-21T22:11:25;100696.59;;;17.08;100.00
4858;BME280;58975;51.978;8.472;2022-07-21T22:16:22;100713.41;;;17.10;100.00
4858;BME280;58975;51.978;8.472;2022-07-21T22:21:18;100699.28;;;17.08;100.00
4858;BME280;58975;51.978;8.472;2022-07-21T22:26:20;100712.75;;;17.08;100.00
4858;BME280;58975;51.978;8.472;2022-07-21T22:31:17;100703.69;;;17.09;100.00
4858;BME280;58975;51.978;8.472;2022-07-21T22:36:14;100706.38;;;17.09;100.00
4858;BME280;58975;51.978;8.472;2022-07-21T22:41:10;100712.28;;;17.13;100.00
4858;BME280;58975;51.978;8.472;2022-07-21T22:46:07;100698.97;;;17.11;100.00
4858;BME280;58975;51.978;8.472;2022-07-21T22:51:04;100702.50;;;17.12;100.00
4858;BME280;58975;51.978;8.472;2022-07-21T22:56:01;100702.19;;;17.15;100.00
4858;BME280;58975;51.978;8.472;2022-07-21T23:00:57;100706.72;;;17.14;100.00
4858;BME280;58975;51.978;8.472;2022-07-21T23:05:53;100699.03;;;17.19;100.00
4858;BME280;58975;51.978;8.472;2022-07-21T23:10:50;100696.66;;;17.16;100.00
4858;BME280;58975;51.978;8.472;2022-07-21T23:15:46;100689.97;;;17.20;100.00
4858;BME280;58975;51.978;8.472;2022-07-21T23:20:43;100690.44;;;17.16;100.00
4858;BME280;58975;51.978;8.472;2022-07-21T23:25:39;100696.66;;;17.16;100.00
4858;BME280;58975;51.978;8.472;2022-07-21T23:30:36;100696.81;;;17.15;100.00
4858;BME280;58975;51.978;8.472;2022-07-21T23:35:32;100695.44;;;17.11;100.00
4858;BME280;58975;51.978;8.472;2022-07-21T23:40:29;100694.59;;;17.10;100.00
4858;BME280;58975;51.978;8.472;2022-07-21T23:45:26;100703.97;;;17.06;100.00
4858;BME280;58975;51.978;8.472;2022-07-21T23:50:22;100704.28;;;17.03;100.00
4858;BME280;58975;51.978;8.472;2022-07-21T23:55:19;100697.06;;;17.03;100.00
